sensor_id;sensor_type;location;lat;lon;timestamp;P1;durP1;ratioP1;P2;durP2;ratioP2
14797;SDS011;7490;63.708;20.368;2024-02-26T00:02:22;7.27;;;4.10;;
14797;SDS011;7490;63.708;20.368;2024-02-26T00:04:48;5.57;;;3.60;;
14797;SDS011;7490;63.708;20.368;2024-02-26T00:07:15;7.47;;;4.13;;
14797;SDS011;7490;63.708;20.368;2024-02-26T00:09:41;9.30;;;4.00;;
14797;SDS011;7490;63.708;20.368;2024-02-26T00:12:07;8.40;;;3.87;;
14797;SDS011;7490;63.708;20.368;2024-02-26T00:14:33;7.83;;;4.07;;
14797;SDS011;7490;63.708;20.368;2024-02-26T00:16:59;6.23;;;3.57;;
14797;SDS011;7490;63.708;20.368;2024-02-26T00:19:25;7.07;;;3.63;;
14797;SDS011;7490;63.708;20.368;2024-02-26T00:21:50;6.40;;;3.77;;
14797;SDS011;7490;63.708;20.368;2024-02-26T00:24:16;7.63;;;3.87;;
14797;SDS011;7490;63.708;20.368;2024-02-26T00:26:42;7.40;;;4.17;;
14797;SDS011;7490;63.708;20.368;2024-02-26T00:29:07;6.03;;;4.20;;
14797;SDS011;7490;63.708;20.368;2024-02-26T00:31:33;6.63;;;4.10;;
14797;SDS011;7490;63.708;20.368;2024-02-26T00:33:59;8.50;;;4.13;;
14797;SDS011;7490;63.708;20.368;2024-02-26T00:36:25;9.40;;;4.10;;
14797;SDS011;7490;63.708;20.368;2024-02-26T00:38:51;6.87;;;4.07;;
14797;SDS011;7490;63.708;20.368;2024-02-26T00:41:17;8.53;;;4.20;;
14797;SDS011;7490;63.708;20.368;2024-02-26T00:43:43;9.17;;;4.50;;
14797;SDS011;7490;63.708;20.368;2024-02-26T00:46:09;7.17;;;4.33;;
14797;SDS011;7490;63.708;20.368;2024-02-26T00:48:35;7.70;;;3.93;;
14797;SDS011;7490;63.708;20.368;2024-02-26T00:51:02;8.57;;;4.13;;
14797;SDS011;7490;63.708;20.368;2024-02-26T00:53:30;7.70;;;3.80;;
14797;SDS011;7490;63.708;20.368;2024-02-26T00:55:56;5.83;;;3.87;;
14797;SDS011;7490;63.708;20.368;2024-02-26T00:58:24;16.47;;;4.60;;
14797;SDS011;7490;63.708;20.368;2024-02-26T01:00:50;7.80;;;3.77;;
14797;SDS011;7490;63.708;20.368;2024-02-26T01:03:15;11.00;;;4.30;;
14797;SDS011;7490;63.708;20.368;2024-02-26T01:05:42;7.33;;;4.13;;
14797;SDS011;7490;63.708;20.368;2024-02-26T01:08:08;6.70;;;4.20;;
14797;SDS011;7490;63.708;20.368;2024-02-26T01:10:34;7.90;;;4.07;;
14797;SDS011;7490;63.708;20.368;2024-02-26T01:12:59;5.33;;;3.57;;
14797;SDS011;7490;63.708;20.368;2024-02-26T01:15:26;7.00;;;4.00;;
14797;SDS011;7490;63.708;20.368;2024-02-26T01:17:51;6.53;;;3.90;;
14797;SDS011;7490;63.708;20.368;2024-02-26T01:20:17;7.93;;;3.60;;
14797;SDS011;7490;63.708;20.368;2024-02-26T01:22:43;9.20;;;3.90;;
14797;SDS011;7490;63.708;20.368;2024-02-26T01:25:09;7.77;;;4.37;;
14797;SDS011;7490;63.708;20.368;2024-02-26T01:27:38;7.20;;;3.63;;
14797;SDS011;7490;63.708;20.368;2024-02-26T01:30:06;7.60;;;3.93;;
14797;SDS011;7490;63.708;20.368;2024-02-26T01:32:32;7.00;;;3.40;;
14797;SDS011;7490;63.708;20.368;2024-02-26T01:34:58;6.63;;;3.73;;
14797;SDS011;7490;63.708;20.368;2024-02-26T01:37:24;5.90;;;3.60;;
14797;SDS011;7490;63.708;20.368;2024-02-26T01:39:50;6.57;;;3.50;;
14797;SDS011;7490;63.708;20.368;2024-02-26T01:42:16;7.57;;;3.83;;
14797;SDS011;7490;63.708;20.368;2024-02-26T01:44:41;8.37;;;3.93;;
14797;SDS011;7490;63.708;20.368;2024-02-26T01:47:07;8.60;;;3.73;;
14797;SDS011;7490;63.708;20.368;2024-02-26T01:49:36;4.27;;;2.90;;
14797;SDS011;7490;63.708;20.368;2024-02-26T01:52:04;4.93;;;3.50;;
14797;SDS011;7490;63.708;20.368;2024-02-26T01:54:31;4.63;;;3.03;;
14797;SDS011;7490;63.708;20.368;2024-02-26T01:57:00;4.00;;;3.30;;
14797;SDS011;7490;63.708;20.368;2024-02-26T01:59:26;5.93;;;3.50;;
14797;SDS011;7490;63.708;20.368;2024-02-26T02:01:55;5.90;;;3.43;;
14797;SDS011;7490;63.708;20.368;2024-02-26T02:04:23;5.33;;;3.23;;
14797;SDS011;7490;63.708;20.368;2024-02-26T02:06:49;4.07;;;3.03;;
14797;SDS011;7490;63.708;20.368;2024-02-26T02:09:17;5.80;;;3.03;;
14797;SDS011;7490;63.708;20.368;2024-02-26T02:11:43;7.70;;;2.97;;
14797;SDS011;7490;63.708;20.368;2024-02-26T02:14:09;4.27;;;2.67;;
14797;SDS011;7490;63.708;20.368;2024-02-26T02:16:35;3.23;;;2.60;;
14797;SDS011;7490;63.708;20.368;2024-02-26T02:19:01;5.63;;;2.83;;
14797;SDS011;7490;63.708;20.368;2024-02-26T02:21:26;3.63;;;2.67;;
14797;SDS011;7490;63.708;20.368;2024-02-26T02:23:52;7.77;;;2.90;;
14797;SDS011;7490;63.708;20.368;2024-02-26T02:26:18;3.30;;;2.77;;
14797;SDS011;7490;63.708;20.368;2024-02-26T02:28:45;4.23;;;2.73;;
14797;SDS011;7490;63.708;20.368;2024-02-26T02:31:12;6.47;;;2.80;;
14797;SDS011;7490;63.708;20.368;2024-02-26T02:33:38;5.90;;;2.80;;
14797;SDS011;7490;63.708;20.368;2024-02-26T02:36:04;5.67;;;3.10;;
14797;SDS011;7490;63.708;20.368;2024-02-26T02:38:34;3.90;;;2.70;;
14797;SDS011;7490;63.708;20.368;2024-02-26T02:40:59;7.60;;;2.77;;
14797;SDS011;7490;63.708;20.368;2024-02-26T02:43:25;5.00;;;2.97;;
14797;SDS011;7490;63.708;20.368;2024-02-26T02:45:51;3.63;;;3.10;;
14797;SDS011;7490;63.708;20.368;2024-02-26T02:48:16;4.40;;;3.00;;
14797;SDS011;7490;63.708;20.368;2024-02-26T02:50:42;5.60;;;3.10;;
14797;SDS011;7490;63.708;20.368;2024-02-26T02:53:08;5.00;;;3.00;;
14797;SDS011;7490;63.708;20.368;2024-02-26T02:55:34;5.63;;;2.73;;
14797;SDS011;7490;63.708;20.368;2024-02-26T02:57:59;4.03;;;2.70;;
14797;SDS011;7490;63.708;20.368;2024-02-26T03:00:25;3.87;;;2.50;;
14797;SDS011;7490;63.708;20.368;2024-02-26T03:02:51;5.17;;;2.60;;
14797;SDS011;7490;63.708;20.368;2024-02-26T03:05:16;3.33;;;2.40;;
14797;SDS011;7490;63.708;20.368;2024-02-26T03:07:42;2.43;;;2.07;;
14797;SDS011;7490;63.708;20.368;2024-02-26T03:10:08;3.93;;;2.20;;
14797;SDS011;7490;63.708;20.368;2024-02-26T03:12:33;6.67;;;2.63;;
14797;SDS011;7490;63.708;20.368;2024-02-26T03:14:59;4.93;;;2.33;;
14797;SDS011;7490;63.708;20.368;2024-02-26T03:17:28;5.57;;;2.40;;
14797;SDS011;7490;63.708;20.368;2024-02-26T03:19:54;5.40;;;2.07;;
14797;SDS011;7490;63.708;20.368;2024-02-26T03:22:20;3.83;;;2.17;;
14797;SDS011;7490;63.708;20.368;2024-02-26T03:24:46;2.47;;;2.27;;
14797;SDS011;7490;63.708;20.368;2024-02-26T03:27:12;2.47;;;2.20;;
14797;SDS011;7490;63.708;20.368;2024-02-26T03:29:38;2.77;;;2.10;;
14797;SDS011;7490;63.708;20.368;2024-02-26T03:32:04;3.70;;;2.00;;
14797;SDS011;7490;63.708;20.368;2024-02-26T03:34:31;3.77;;;2.33;;
14797;SDS011;7490;63.708;20.368;2024-02-26T03:36:59;4.40;;;2.40;;
14797;SDS011;7490;63.708;20.368;2024-02-26T03:39:25;4.43;;;2.30;;
14797;SDS011;7490;63.708;20.368;2024-02-26T03:41:50;6.53;;;2.43;;
14797;SDS011;7490;63.708;20.368;2024-02-26T03:44:16;2.37;;;2.00;;
14797;SDS011;7490;63.708;20.368;2024-02-26T03:46:42;2.53;;;2.10;;
14797;SDS011;7490;63.708;20.368;2024-02-26T03:49:08;2.97;;;2.23;;
14797;SDS011;7490;63.708;20.368;2024-02-26T03:51:33;4.53;;;2.50;;
14797;SDS011;7490;63.708;20.368;2024-02-26T03:53:59;4.33;;;2.70;;
14797;SDS011;7490;63.708;20.368;2024-02-26T03:56:26;5.10;;;3.37;;
14797;SDS011;7490;63.708;20.368;2024-02-26T03:58:52;6.63;;;3.60;;
14797;SDS011;7490;63.708;20.368;2024-02-26T04:01:18;4.67;;;3.20;;
14797;SDS011;7490;63.708;20.368;2024-02-26T04:03:44;4.87;;;3.50;;
14797;SDS011;7490;63.708;20.368;2024-02-26T04:06:10;8.83;;;4.30;;
14797;SDS011;7490;63.708;20.368;2024-02-26T04:08:39;6.63;;;4.03;;
14797;SDS011;7490;63.708;20.368;2024-02-26T04:11:06;7.33;;;3.93;;
14797;SDS011;7490;63.708;20.368;2024-02-26T04:13:35;5.97;;;3.47;;
14797;SDS011;7490;63.708;20.368;2024-02-26T04:16:03;5.37;;;3.03;;
14797;SDS011;7490;63.708;20.368;2024-02-26T04:18:32;3.57;;;2.50;;
14797;SDS011;7490;63.708;20.368;2024-02-26T04:20:58;5.63;;;2.53;;
14797;SDS011;7490;63.708;20.368;2024-02-26T04:23:24;5.40;;;2.00;;
14797;SDS011;7490;63.708;20.368;2024-02-26T04:25:50;3.63;;;2.00;;
14797;SDS011;7490;63.708;20.368;2024-02-26T04:28:18;6.17;;;2.27;;
14797;SDS011;7490;63.708;20.368;2024-02-26T04:30:45;5.63;;;2.27;;
14797;SDS011;7490;63.708;20.368;2024-02-26T04:33:12;2.17;;;1.90;;
14797;SDS011;7490;63.708;20.368;2024-02-26T04:35:38;3.50;;;2.00;;
14797;SDS011;7490;63.708;20.368;2024-02-26T04:38:04;2.90;;;2.07;;
14797;SDS011;7490;63.708;20.368;2024-02-26T04:40:30;7.63;;;2.30;;
14797;SDS011;7490;63.708;20.368;2024-02-26T04:42:55;6.03;;;2.50;;
14797;SDS011;7490;63.708;20.368;2024-02-26T04:45:21;4.13;;;2.43;;
14797;SDS011;7490;63.708;20.368;2024-02-26T04:47:46;3.33;;;2.30;;
14797;SDS011;7490;63.708;20.368;2024-02-26T04:50:12;3.60;;;2.47;;
14797;SDS011;7490;63.708;20.368;2024-02-26T04:52:38;4.80;;;2.27;;
14797;SDS011;7490;63.708;20.368;2024-02-26T04:55:03;2.57;;;2.00;;
14797;SDS011;7490;63.708;20.368;2024-02-26T04:57:29;2.97;;;1.93;;
14797;SDS011;7490;63.708;20.368;2024-02-26T04:59:55;4.60;;;2.10;;
14797;SDS011;7490;63.708;20.368;2024-02-26T05:02:21;4.83;;;1.90;;
14797;SDS011;7490;63.708;20.368;2024-02-26T05:04:46;4.87;;;2.47;;
14797;SDS011;7490;63.708;20.368;2024-02-26T05:07:12;2.37;;;1.97;;
14797;SDS011;7490;63.708;20.368;2024-02-26T05:09:37;4.00;;;2.17;;
14797;SDS011;7490;63.708;20.368;2024-02-26T05:12:03;2.73;;;1.70;;
14797;SDS011;7490;63.708;20.368;2024-02-26T05:14:30;3.00;;;2.10;;
14797;SDS011;7490;63.708;20.368;2024-02-26T05:16:55;3.80;;;2.27;;
14797;SDS011;7490;63.708;20.368;2024-02-26T05:19:21;5.47;;;2.60;;
14797;SDS011;7490;63.708;20.368;2024-02-26T05:21:47;5.53;;;2.67;;
14797;SDS011;7490;63.708;20.368;2024-02-26T05:24:14;6.87;;;2.83;;
14797;SDS011;7490;63.708;20.368;2024-02-26T05:26:42;6.60;;;2.60;;
14797;SDS011;7490;63.708;20.368;2024-02-26T05:29:08;4.63;;;2.50;;
14797;SDS011;7490;63.708;20.368;2024-02-26T05:31:34;6.10;;;3.40;;
14797;SDS011;7490;63.708;20.368;2024-02-26T05:33:59;5.33;;;2.90;;
14797;SDS011;7490;63.708;20.368;2024-02-26T05:36:25;6.60;;;3.10;;
14797;SDS011;7490;63.708;20.368;2024-02-26T05:38:51;6.97;;;3.43;;
14797;SDS011;7490;63.708;20.368;2024-02-26T05:41:16;7.33;;;3.40;;
14797;SDS011;7490;63.708;20.368;2024-02-26T05:43:51;5.10;;;3.00;;
14797;SDS011;7490;63.708;20.368;2024-02-26T05:46:17;4.63;;;3.20;;
14797;SDS011;7490;63.708;20.368;2024-02-26T05:48:44;4.43;;;3.50;;
14797;SDS011;7490;63.708;20.368;2024-02-26T05:51:09;9.47;;;3.67;;
14797;SDS011;7490;63.708;20.368;2024-02-26T05:53:35;8.17;;;3.77;;
14797;SDS011;7490;63.708;20.368;2024-02-26T05:56:01;9.30;;;3.93;;
14797;SDS011;7490;63.708;20.368;2024-02-26T05:58:26;9.00;;;4.40;;
14797;SDS011;7490;63.708;20.368;2024-02-26T06:00:52;7.73;;;4.00;;
14797;SDS011;7490;63.708;20.368;2024-02-26T06:03:18;8.37;;;4.50;;
14797;SDS011;7490;63.708;20.368;2024-02-26T06:05:43;7.43;;;3.70;;
14797;SDS011;7490;63.708;20.368;2024-02-26T06:08:09;9.10;;;4.10;;
14797;SDS011;7490;63.708;20.368;2024-02-26T06:10:35;10.60;;;4.63;;
14797;SDS011;7490;63.708;20.368;2024-02-26T06:13:00;6.67;;;4.17;;
14797;SDS011;7490;63.708;20.368;2024-02-26T06:15:26;8.83;;;4.63;;
14797;SDS011;7490;63.708;20.368;2024-02-26T06:17:51;7.23;;;4.20;;
14797;SDS011;7490;63.708;20.368;2024-02-26T06:20:17;8.93;;;4.70;;
14797;SDS011;7490;63.708;20.368;2024-02-26T06:22:43;7.67;;;4.50;;
14797;SDS011;7490;63.708;20.368;2024-02-26T06:25:09;10.97;;;4.77;;
14797;SDS011;7490;63.708;20.368;2024-02-26T06:27:34;11.30;;;4.70;;
14797;SDS011;7490;63.708;20.368;2024-02-26T06:30:00;9.43;;;4.67;;
14797;SDS011;7490;63.708;20.368;2024-02-26T06:32:26;11.67;;;5.40;;
14797;SDS011;7490;63.708;20.368;2024-02-26T06:34:53;10.33;;;5.33;;
14797;SDS011;7490;63.708;20.368;2024-02-26T06:37:19;8.03;;;5.03;;
14797;SDS011;7490;63.708;20.368;2024-02-26T06:39:45;11.07;;;5.70;;
14797;SDS011;7490;63.708;20.368;2024-02-26T06:42:11;10.47;;;5.53;;
14797;SDS011;7490;63.708;20.368;2024-02-26T06:44:37;11.33;;;5.80;;
14797;SDS011;7490;63.708;20.368;2024-02-26T06:47:02;12.27;;;5.87;;
14797;SDS011;7490;63.708;20.368;2024-02-26T06:49:28;13.20;;;6.23;;
14797;SDS011;7490;63.708;20.368;2024-02-26T06:51:54;11.80;;;5.93;;
14797;SDS011;7490;63.708;20.368;2024-02-26T06:54:20;9.70;;;6.20;;
14797;SDS011;7490;63.708;20.368;2024-02-26T06:56:46;10.13;;;5.57;;
14797;SDS011;7490;63.708;20.368;2024-02-26T06:59:12;12.90;;;6.13;;
14797;SDS011;7490;63.708;20.368;2024-02-26T07:01:40;10.43;;;5.43;;
14797;SDS011;7490;63.708;20.368;2024-02-26T07:04:06;13.17;;;6.90;;
14797;SDS011;7490;63.708;20.368;2024-02-26T07:06:32;14.03;;;6.20;;
14797;SDS011;7490;63.708;20.368;2024-02-26T07:08:58;15.20;;;6.40;;
14797;SDS011;7490;63.708;20.368;2024-02-26T07:11:23;26.13;;;7.53;;
14797;SDS011;7490;63.708;20.368;2024-02-26T07:13:49;20.47;;;6.83;;
14797;SDS011;7490;63.708;20.368;2024-02-26T07:16:15;31.70;;;7.73;;
14797;SDS011;7490;63.708;20.368;2024-02-26T07:18:41;37.07;;;8.13;;
14797;SDS011;7490;63.708;20.368;2024-02-26T07:21:08;33.43;;;7.67;;
14797;SDS011;7490;63.708;20.368;2024-02-26T07:23:34;43.00;;;7.70;;
14797;SDS011;7490;63.708;20.368;2024-02-26T07:26:00;35.73;;;8.07;;
14797;SDS011;7490;63.708;20.368;2024-02-26T07:28:25;28.70;;;7.43;;
14797;SDS011;7490;63.708;20.368;2024-02-26T07:30:51;41.40;;;8.13;;
14797;SDS011;7490;63.708;20.368;2024-02-26T07:33:16;29.50;;;7.83;;
14797;SDS011;7490;63.708;20.368;2024-02-26T07:35:42;14.60;;;7.07;;
14797;SDS011;7490;63.708;20.368;2024-02-26T07:38:08;18.00;;;6.27;;
14797;SDS011;7490;63.708;20.368;2024-02-26T07:40:33;17.70;;;6.97;;
14797;SDS011;7490;63.708;20.368;2024-02-26T07:42:59;15.83;;;6.17;;
14797;SDS011;7490;63.708;20.368;2024-02-26T07:45:25;15.80;;;6.50;;
14797;SDS011;7490;63.708;20.368;2024-02-26T07:47:50;11.53;;;6.57;;
14797;SDS011;7490;63.708;20.368;2024-02-26T07:50:17;17.73;;;6.93;;
14797;SDS011;7490;63.708;20.368;2024-02-26T07:52:43;15.10;;;6.50;;
14797;SDS011;7490;63.708;20.368;2024-02-26T07:55:09;10.47;;;6.60;;
14797;SDS011;7490;63.708;20.368;2024-02-26T07:57:35;9.37;;;5.63;;
14797;SDS011;7490;63.708;20.368;2024-02-26T08:00:02;10.47;;;6.30;;
14797;SDS011;7490;63.708;20.368;2024-02-26T08:02:28;10.87;;;6.30;;
14797;SDS011;7490;63.708;20.368;2024-02-26T08:04:54;10.43;;;6.50;;
14797;SDS011;7490;63.708;20.368;2024-02-26T08:07:19;10.20;;;6.73;;
14797;SDS011;7490;63.708;20.368;2024-02-26T08:09:46;10.23;;;5.90;;
14797;SDS011;7490;63.708;20.368;2024-02-26T08:12:12;10.30;;;6.43;;
14797;SDS011;7490;63.708;20.368;2024-02-26T08:14:38;9.40;;;5.87;;
14797;SDS011;7490;63.708;20.368;2024-02-26T08:17:05;9.80;;;6.00;;
14797;SDS011;7490;63.708;20.368;2024-02-26T08:19:31;9.30;;;5.80;;
14797;SDS011;7490;63.708;20.368;2024-02-26T08:21:57;11.47;;;5.67;;
14797;SDS011;7490;63.708;20.368;2024-02-26T08:24:23;12.17;;;5.83;;
14797;SDS011;7490;63.708;20.368;2024-02-26T08:26:48;10.20;;;6.10;;
14797;SDS011;7490;63.708;20.368;2024-02-26T08:29:14;24.20;;;6.97;;
14797;SDS011;7490;63.708;20.368;2024-02-26T08:31:40;26.30;;;7.10;;
14797;SDS011;7490;63.708;20.368;2024-02-26T08:34:06;25.10;;;6.97;;
14797;SDS011;7490;63.708;20.368;2024-02-26T08:36:33;20.00;;;6.47;;
14797;SDS011;7490;63.708;20.368;2024-02-26T08:38:59;20.73;;;6.53;;
14797;SDS011;7490;63.708;20.368;2024-02-26T08:41:25;20.23;;;6.70;;
14797;SDS011;7490;63.708;20.368;2024-02-26T08:43:51;30.87;;;7.10;;
14797;SDS011;7490;63.708;20.368;2024-02-26T08:46:16;18.57;;;6.63;;
14797;SDS011;7490;63.708;20.368;2024-02-26T08:48:42;17.80;;;7.40;;
14797;SDS011;7490;63.708;20.368;2024-02-26T08:51:08;13.03;;;6.77;;
14797;SDS011;7490;63.708;20.368;2024-02-26T08:53:35;10.57;;;6.07;;
14797;SDS011;7490;63.708;20.368;2024-02-26T08:56:01;12.77;;;5.97;;
14797;SDS011;7490;63.708;20.368;2024-02-26T08:58:27;8.23;;;5.63;;
14797;SDS011;7490;63.708;20.368;2024-02-26T09:00:53;8.57;;;6.07;;
14797;SDS011;7490;63.708;20.368;2024-02-26T09:03:19;9.30;;;5.83;;
14797;SDS011;7490;63.708;20.368;2024-02-26T09:05:45;9.93;;;6.53;;
14797;SDS011;7490;63.708;20.368;2024-02-26T09:08:10;12.93;;;5.63;;
14797;SDS011;7490;63.708;20.368;2024-02-26T09:10:36;15.90;;;5.87;;
14797;SDS011;7490;63.708;20.368;2024-02-26T09:13:01;16.73;;;5.80;;
14797;SDS011;7490;63.708;20.368;2024-02-26T09:15:27;36.30;;;6.00;;
14797;SDS011;7490;63.708;20.368;2024-02-26T09:17:53;16.73;;;5.40;;
14797;SDS011;7490;63.708;20.368;2024-02-26T09:20:19;24.53;;;5.83;;
14797;SDS011;7490;63.708;20.368;2024-02-26T09:22:48;19.13;;;6.23;;
14797;SDS011;7490;63.708;20.368;2024-02-26T09:25:15;27.13;;;5.77;;
14797;SDS011;7490;63.708;20.368;2024-02-26T09:27:42;16.73;;;5.43;;
14797;SDS011;7490;63.708;20.368;2024-02-26T09:30:09;20.63;;;5.20;;
14797;SDS011;7490;63.708;20.368;2024-02-26T09:32:37;11.50;;;5.17;;
14797;SDS011;7490;63.708;20.368;2024-02-26T09:35:04;11.77;;;4.80;;
14797;SDS011;7490;63.708;20.368;2024-02-26T09:37:31;14.47;;;4.97;;
14797;SDS011;7490;63.708;20.368;2024-02-26T09:39:57;16.67;;;5.63;;
14797;SDS011;7490;63.708;20.368;2024-02-26T09:42:25;21.33;;;4.77;;
14797;SDS011;7490;63.708;20.368;2024-02-26T09:44:51;17.53;;;4.23;;
14797;SDS011;7490;63.708;20.368;2024-02-26T09:47:20;25.60;;;5.47;;
14797;SDS011;7490;63.708;20.368;2024-02-26T09:49:48;32.20;;;5.37;;
14797;SDS011;7490;63.708;20.368;2024-02-26T09:52:15;32.60;;;5.53;;
14797;SDS011;7490;63.708;20.368;2024-02-26T09:54:42;50.57;;;5.87;;
14797;SDS011;7490;63.708;20.368;2024-02-26T09:57:12;37.33;;;5.37;;
14797;SDS011;7490;63.708;20.368;2024-02-26T09:59:41;32.20;;;4.90;;
14797;SDS011;7490;63.708;20.368;2024-02-26T10:02:09;29.27;;;4.90;;
14797;SDS011;7490;63.708;20.368;2024-02-26T10:04:37;41.63;;;5.77;;
14797;SDS011;7490;63.708;20.368;2024-02-26T10:07:11;22.77;;;5.03;;
14797;SDS011;7490;63.708;20.368;2024-02-26T10:09:37;14.27;;;5.03;;
14797;SDS011;7490;63.708;20.368;2024-02-26T10:12:03;19.10;;;5.20;;
14797;SDS011;7490;63.708;20.368;2024-02-26T10:14:30;10.07;;;4.83;;
14797;SDS011;7490;63.708;20.368;2024-02-26T10:16:56;7.70;;;4.67;;
14797;SDS011;7490;63.708;20.368;2024-02-26T10:19:25;7.83;;;4.60;;
14797;SDS011;7490;63.708;20.368;2024-02-26T10:21:58;8.57;;;4.23;;
14797;SDS011;7490;63.708;20.368;2024-02-26T10:24:28;12.67;;;4.67;;
14797;SDS011;7490;63.708;20.368;2024-02-26T10:26:55;12.37;;;4.70;;
14797;SDS011;7490;63.708;20.368;2024-02-26T10:29:23;10.47;;;3.87;;
14797;SDS011;7490;63.708;20.368;2024-02-26T10:31:52;8.23;;;4.30;;
14797;SDS011;7490;63.708;20.368;2024-02-26T10:34:19;6.27;;;3.73;;
14797;SDS011;7490;63.708;20.368;2024-02-26T10:36:45;9.80;;;4.33;;
14797;SDS011;7490;63.708;20.368;2024-02-26T10:39:13;20.37;;;3.77;;
14797;SDS011;7490;63.708;20.368;2024-02-26T10:41:40;16.03;;;4.60;;
14797;SDS011;7490;63.708;20.368;2024-02-26T10:44:08;23.10;;;4.80;;
14797;SDS011;7490;63.708;20.368;2024-02-26T10:46:36;24.93;;;4.60;;
14797;SDS011;7490;63.708;20.368;2024-02-26T10:49:02;12.87;;;4.20;;
14797;SDS011;7490;63.708;20.368;2024-02-26T10:51:30;6.20;;;4.23;;
14797;SDS011;7490;63.708;20.368;2024-02-26T10:53:57;11.60;;;4.47;;
14797;SDS011;7490;63.708;20.368;2024-02-26T10:56:27;17.33;;;4.37;;
14797;SDS011;7490;63.708;20.368;2024-02-26T10:58:54;15.13;;;4.30;;
14797;SDS011;7490;63.708;20.368;2024-02-26T11:01:21;11.87;;;3.47;;
14797;SDS011;7490;63.708;20.368;2024-02-26T11:03:50;16.80;;;4.67;;
14797;SDS011;7490;63.708;20.368;2024-02-26T11:06:19;20.73;;;3.60;;
14797;SDS011;7490;63.708;20.368;2024-02-26T11:08:49;23.00;;;4.33;;
14797;SDS011;7490;63.708;20.368;2024-02-26T11:11:16;14.33;;;4.37;;
14797;SDS011;7490;63.708;20.368;2024-02-26T11:13:43;26.20;;;4.03;;
14797;SDS011;7490;63.708;20.368;2024-02-26T11:16:16;24.23;;;3.77;;
14797;SDS011;7490;63.708;20.368;2024-02-26T11:18:43;23.67;;;4.23;;
14797;SDS011;7490;63.708;20.368;2024-02-26T11:21:18;34.80;;;4.93;;
14797;SDS011;7490;63.708;20.368;2024-02-26T11:23:47;17.70;;;3.20;;
14797;SDS011;7490;63.708;20.368;2024-02-26T11:26:14;46.47;;;5.17;;
14797;SDS011;7490;63.708;20.368;2024-02-26T11:28:42;23.03;;;3.77;;
14797;SDS011;7490;63.708;20.368;2024-02-26T11:31:09;35.13;;;4.27;;
14797;SDS011;7490;63.708;20.368;2024-02-26T11:33:36;45.43;;;4.50;;
14797;SDS011;7490;63.708;20.368;2024-02-26T11:36:02;26.40;;;3.83;;
14797;SDS011;7490;63.708;20.368;2024-02-26T11:38:33;18.47;;;3.70;;
14797;SDS011;7490;63.708;20.368;2024-02-26T11:40:58;17.40;;;3.30;;
14797;SDS011;7490;63.708;20.368;2024-02-26T11:46:27;26.17;;;3.50;;
14797;SDS011;7490;63.708;20.368;2024-02-26T11:49:03;65.73;;;5.30;;
14797;SDS011;7490;63.708;20.368;2024-02-26T11:51:52;77.60;;;6.23;;
14797;SDS011;7490;63.708;20.368;2024-02-26T11:57:28;45.97;;;4.07;;
14797;SDS011;7490;63.708;20.368;2024-02-26T12:05:26;64.03;;;5.07;;
14797;SDS011;7490;63.708;20.368;2024-02-26T12:07:59;51.80;;;4.37;;
14797;SDS011;7490;63.708;20.368;2024-02-26T12:16:06;50.10;;;4.57;;
14797;SDS011;7490;63.708;20.368;2024-02-26T12:18:31;56.13;;;5.10;;
14797;SDS011;7490;63.708;20.368;2024-02-26T12:21:00;43.47;;;4.10;;
14797;SDS011;7490;63.708;20.368;2024-02-26T12:23:29;59.27;;;4.53;;
14797;SDS011;7490;63.708;20.368;2024-02-26T12:26:01;18.40;;;3.17;;
14797;SDS011;7490;63.708;20.368;2024-02-26T12:28:30;59.90;;;5.33;;
14797;SDS011;7490;63.708;20.368;2024-02-26T12:30:56;45.13;;;4.27;;
14797;SDS011;7490;63.708;20.368;2024-02-26T12:33:24;49.33;;;4.07;;
14797;SDS011;7490;63.708;20.368;2024-02-26T12:35:51;55.03;;;4.67;;
14797;SDS011;7490;63.708;20.368;2024-02-26T12:38:17;65.67;;;5.17;;
14797;SDS011;7490;63.708;20.368;2024-02-26T12:40:44;32.10;;;3.67;;
14797;SDS011;7490;63.708;20.368;2024-02-26T12:43:10;35.67;;;4.27;;
14797;SDS011;7490;63.708;20.368;2024-02-26T12:45:40;49.10;;;4.43;;
14797;SDS011;7490;63.708;20.368;2024-02-26T12:48:06;32.90;;;3.73;;
14797;SDS011;7490;63.708;20.368;2024-02-26T12:50:32;49.53;;;4.63;;
14797;SDS011;7490;63.708;20.368;2024-02-26T12:52:59;44.07;;;4.43;;
14797;SDS011;7490;63.708;20.368;2024-02-26T12:55:25;16.77;;;3.53;;
14797;SDS011;7490;63.708;20.368;2024-02-26T12:57:51;33.53;;;4.30;;
14797;SDS011;7490;63.708;20.368;2024-02-26T13:00:19;29.57;;;3.97;;
14797;SDS011;7490;63.708;20.368;2024-02-26T13:02:47;41.83;;;4.97;;
14797;SDS011;7490;63.708;20.368;2024-02-26T13:05:14;24.30;;;3.50;;
14797;SDS011;7490;63.708;20.368;2024-02-26T13:07:42;31.20;;;3.83;;
14797;SDS011;7490;63.708;20.368;2024-02-26T13:10:12;15.43;;;3.60;;
14797;SDS011;7490;63.708;20.368;2024-02-26T13:12:45;16.30;;;3.80;;
14797;SDS011;7490;63.708;20.368;2024-02-26T13:15:17;32.93;;;4.27;;
14797;SDS011;7490;63.708;20.368;2024-02-26T13:17:45;46.27;;;4.50;;
14797;SDS011;7490;63.708;20.368;2024-02-26T13:20:12;45.67;;;4.50;;
14797;SDS011;7490;63.708;20.368;2024-02-26T13:22:49;29.33;;;3.80;;
14797;SDS011;7490;63.708;20.368;2024-02-26T13:25:19;19.87;;;3.47;;
14797;SDS011;7490;63.708;20.368;2024-02-26T13:27:45;39.17;;;4.57;;
14797;SDS011;7490;63.708;20.368;2024-02-26T13:30:11;29.80;;;4.17;;
14797;SDS011;7490;63.708;20.368;2024-02-26T13:32:39;26.27;;;4.87;;
14797;SDS011;7490;63.708;20.368;2024-02-26T13:35:09;34.00;;;3.90;;
14797;SDS011;7490;63.708;20.368;2024-02-26T13:37:36;17.97;;;4.00;;
14797;SDS011;7490;63.708;20.368;2024-02-26T13:40:07;16.83;;;3.17;;
14797;SDS011;7490;63.708;20.368;2024-02-26T13:42:39;17.77;;;4.00;;
14797;SDS011;7490;63.708;20.368;2024-02-26T13:45:05;16.03;;;4.67;;
14797;SDS011;7490;63.708;20.368;2024-02-26T13:47:35;18.70;;;3.73;;
14797;SDS011;7490;63.708;20.368;2024-02-26T13:50:01;33.90;;;4.30;;
14797;SDS011;7490;63.708;20.368;2024-02-26T13:52:27;34.17;;;4.13;;
14797;SDS011;7490;63.708;20.368;2024-02-26T13:54:53;35.07;;;4.33;;
14797;SDS011;7490;63.708;20.368;2024-02-26T13:57:19;22.00;;;3.87;;
14797;SDS011;7490;63.708;20.368;2024-02-26T13:59:45;38.10;;;4.67;;
14797;SDS011;7490;63.708;20.368;2024-02-26T14:02:11;47.27;;;5.53;;
14797;SDS011;7490;63.708;20.368;2024-02-26T14:04:37;62.20;;;4.87;;
14797;SDS011;7490;63.708;20.368;2024-02-26T14:07:03;46.73;;;5.03;;
14797;SDS011;7490;63.708;20.368;2024-02-26T14:09:30;50.20;;;5.53;;
14797;SDS011;7490;63.708;20.368;2024-02-26T14:11:57;41.20;;;4.57;;
14797;SDS011;7490;63.708;20.368;2024-02-26T14:14:23;52.20;;;5.83;;
14797;SDS011;7490;63.708;20.368;2024-02-26T14:16:50;43.83;;;4.93;;
14797;SDS011;7490;63.708;20.368;2024-02-26T14:19:16;22.37;;;3.80;;
14797;SDS011;7490;63.708;20.368;2024-02-26T14:21:42;73.17;;;6.77;;
14797;SDS011;7490;63.708;20.368;2024-02-26T14:24:07;103.60;;;8.33;;
14797;SDS011;7490;63.708;20.368;2024-02-26T14:26:33;72.27;;;6.80;;
14797;SDS011;7490;63.708;20.368;2024-02-26T14:28:59;58.63;;;6.87;;
14797;SDS011;7490;63.708;20.368;2024-02-26T14:31:25;55.17;;;6.60;;
14797;SDS011;7490;63.708;20.368;2024-02-26T14:33:51;30.63;;;5.63;;
14797;SDS011;7490;63.708;20.368;2024-02-26T14:36:19;13.60;;;5.10;;
14797;SDS011;7490;63.708;20.368;2024-02-26T14:38:48;6.03;;;4.23;;
14797;SDS011;7490;63.708;20.368;2024-02-26T14:41:13;8.50;;;3.93;;
14797;SDS011;7490;63.708;20.368;2024-02-26T14:43:39;34.67;;;5.47;;
14797;SDS011;7490;63.708;20.368;2024-02-26T14:46:05;36.30;;;5.30;;
14797;SDS011;7490;63.708;20.368;2024-02-26T14:48:31;12.30;;;4.00;;
14797;SDS011;7490;63.708;20.368;2024-02-26T14:50:57;11.20;;;3.83;;
14797;SDS011;7490;63.708;20.368;2024-02-26T14:53:23;7.90;;;4.07;;
14797;SDS011;7490;63.708;20.368;2024-02-26T14:55:49;5.80;;;3.63;;